sensor_id;sensor_type;location;lat;lon;timestamp;P1;durP1;ratioP1;P2;durP2;ratioP2
2011;SDS011;1009;51.436;6.972;2023-12-14T00:00:26;35.90;;;17.10;;
2011;SDS011;1009;51.436;6.972;2023-12-14T00:02:53;47.87;;;18.43;;
2011;SDS011;1009;51.436;6.972;2023-12-14T00:05:19;38.37;;;17.10;;
2011;SDS011;1009;51.436;6.972;2023-12-14T00:07:46;41.57;;;16.70;;
2011;SDS011;1009;51.436;6.972;2023-12-14T00:10:13;35.37;;;16.47;;
2011;SDS011;1009;51.436;6.972;2023-12-14T00:12:39;29.03;;;13.43;;
2011;SDS011;1009;51.436;6.972;2023-12-14T00:15:08;32.27;;;15.10;;
2011;SDS011;1009;51.436;6.972;2023-12-14T00:17:35;29.20;;;14.73;;
2011;SDS011;1009;51.436;6.972;2023-12-14T00:20:02;33.43;;;14.27;;
2011;SDS011;1009;51.436;6.972;2023-12-14T00:22:30;34.80;;;15.87;;
2011;SDS011;1009;51.436;6.972;2023-12-14T00:24:57;32.90;;;15.80;;
2011;SDS011;1009;51.436;6.972;2023-12-14T00:27:23;28.47;;;14.67;;
2011;SDS011;1009;51.436;6.972;2023-12-14T00:29:50;32.07;;;14.63;;
2011;SDS011;1009;51.436;6.972;2023-12-14T00:32:18;32.10;;;14.40;;
2011;SDS011;1009;51.436;6.972;2023-12-14T00:34:45;41.10;;;16.73;;
2011;SDS011;1009;51.436;6.972;2023-12-14T00:37:12;31.23;;;16.60;;
2011;SDS011;1009;51.436;6.972;2023-12-14T00:39:38;29.07;;;15.40;;
2011;SDS011;1009;51.436;6.972;2023-12-14T00:42:05;28.07;;;14.93;;
2011;SDS011;1009;51.436;6.972;2023-12-14T00:44:32;28.60;;;14.47;;
2011;SDS011;1009;51.436;6.972;2023-12-14T00:46:59;27.67;;;14.60;;
2011;SDS011;1009;51.436;6.972;2023-12-14T00:49:29;22.20;;;12.27;;
2011;SDS011;1009;51.436;6.972;2023-12-14T00:51:55;22.70;;;11.93;;
2011;SDS011;1009;51.436;6.972;2023-12-14T00:54:23;24.90;;;12.03;;
2011;SDS011;1009;51.436;6.972;2023-12-14T00:56:50;20.83;;;12.10;;
2011;SDS011;1009;51.436;6.972;2023-12-14T00:59:16;23.80;;;13.40;;
2011;SDS011;1009;51.436;6.972;2023-12-14T01:01:43;22.40;;;12.50;;
2011;SDS011;1009;51.436;6.972;2023-12-14T01:04:10;23.33;;;11.13;;
2011;SDS011;1009;51.436;6.972;2023-12-14T01:06:38;24.73;;;13.40;;
2011;SDS011;1009;51.436;6.972;2023-12-14T01:09:05;24.40;;;13.10;;
2011;SDS011;1009;51.436;6.972;2023-12-14T01:11:33;20.77;;;12.23;;
2011;SDS011;1009;51.436;6.972;2023-12-14T01:14:00;25.40;;;14.20;;
2011;SDS011;1009;51.436;6.972;2023-12-14T01:16:26;24.30;;;12.53;;
2011;SDS011;1009;51.436;6.972;2023-12-14T01:18:53;21.20;;;12.30;;
2011;SDS011;1009;51.436;6.972;2023-12-14T01:21:20;16.03;;;10.23;;
2011;SDS011;1009;51.436;6.972;2023-12-14T01:23:47;15.37;;;9.27;;
2011;SDS011;1009;51.436;6.972;2023-12-14T01:26:14;17.07;;;11.17;;
2011;SDS011;1009;51.436;6.972;2023-12-14T01:28:40;16.57;;;9.70;;
2011;SDS011;1009;51.436;6.972;2023-12-14T01:31:07;19.03;;;11.50;;
2011;SDS011;1009;51.436;6.972;2023-12-14T01:33:34;16.93;;;10.13;;
2011;SDS011;1009;51.436;6.972;2023-12-14T01:36:01;15.50;;;9.93;;
2011;SDS011;1009;51.436;6.972;2023-12-14T01:38:27;14.23;;;8.57;;
2011;SDS011;1009;51.436;6.972;2023-12-14T01:40:55;14.57;;;8.50;;
2011;SDS011;1009;51.436;6.972;2023-12-14T01:43:24;23.23;;;8.83;;
2011;SDS011;1009;51.436;6.972;2023-12-14T01:45:51;14.40;;;7.93;;
2011;SDS011;1009;51.436;6.972;2023-12-14T01:48:17;13.27;;;8.83;;
2011;SDS011;1009;51.436;6.972;2023-12-14T01:50:44;11.20;;;7.93;;
2011;SDS011;1009;51.436;6.972;2023-12-14T01:53:11;15.23;;;9.40;;
2011;SDS011;1009;51.436;6.972;2023-12-14T01:55:37;17.17;;;9.97;;
2011;SDS011;1009;51.436;6.972;2023-12-14T01:58:05;16.87;;;10.47;;
2011;SDS011;1009;51.436;6.972;2023-12-14T02:00:34;18.20;;;11.73;;
2011;SDS011;1009;51.436;6.972;2023-12-14T02:03:05;18.20;;;11.73;;
2011;SDS011;1009;51.436;6.972;2023-12-14T02:05:32;20.10;;;12.17;;
2011;SDS011;1009;51.436;6.972;2023-12-14T02:07:58;29.10;;;13.10;;
2011;SDS011;1009;51.436;6.972;2023-12-14T02:10:25;20.57;;;12.50;;
2011;SDS011;1009;51.436;6.972;2023-12-14T02:12:52;29.27;;;17.80;;
2011;SDS011;1009;51.436;6.972;2023-12-14T02:15:20;37.27;;;20.03;;
2011;SDS011;1009;51.436;6.972;2023-12-14T02:17:47;35.43;;;18.53;;
2011;SDS011;1009;51.436;6.972;2023-12-14T02:20:13;31.67;;;17.33;;
2011;SDS011;1009;51.436;6.972;2023-12-14T02:22:50;42.43;;;20.47;;
2011;SDS011;1009;51.436;6.972;2023-12-14T02:25:18;35.97;;;20.50;;
2011;SDS011;1009;51.436;6.972;2023-12-14T02:27:44;40.83;;;20.07;;
2011;SDS011;1009;51.436;6.972;2023-12-14T02:30:12;38.13;;;20.70;;
2011;SDS011;1009;51.436;6.972;2023-12-14T02:32:39;37.10;;;21.27;;
2011;SDS011;1009;51.436;6.972;2023-12-14T02:35:06;37.30;;;18.97;;
2011;SDS011;1009;51.436;6.972;2023-12-14T02:37:33;43.17;;;23.40;;
2011;SDS011;1009;51.436;6.972;2023-12-14T02:40:03;46.10;;;21.40;;
2011;SDS011;1009;51.436;6.972;2023-12-14T02:42:31;58.20;;;27.10;;
2011;SDS011;1009;51.436;6.972;2023-12-14T02:44:58;50.17;;;24.90;;
2011;SDS011;1009;51.436;6.972;2023-12-14T02:47:26;51.83;;;26.30;;
2011;SDS011;1009;51.436;6.972;2023-12-14T02:49:53;54.63;;;26.87;;
2011;SDS011;1009;51.436;6.972;2023-12-14T02:52:20;47.77;;;23.37;;
2011;SDS011;1009;51.436;6.972;2023-12-14T02:54:47;42.07;;;23.90;;
2011;SDS011;1009;51.436;6.972;2023-12-14T02:57:15;51.33;;;24.90;;
2011;SDS011;1009;51.436;6.972;2023-12-14T02:59:42;48.00;;;22.60;;
2011;SDS011;1009;51.436;6.972;2023-12-14T03:02:09;49.10;;;26.53;;
2011;SDS011;1009;51.436;6.972;2023-12-14T03:04:37;53.70;;;25.93;;
2011;SDS011;1009;51.436;6.972;2023-12-14T03:07:04;48.80;;;25.60;;
2011;SDS011;1009;51.436;6.972;2023-12-14T03:09:31;54.17;;;25.87;;
2011;SDS011;1009;51.436;6.972;2023-12-14T03:11:58;59.07;;;28.47;;
2011;SDS011;1009;51.436;6.972;2023-12-14T03:14:31;67.37;;;32.60;;
2011;SDS011;1009;51.436;6.972;2023-12-14T03:16:58;57.17;;;27.70;;
2011;SDS011;1009;51.436;6.972;2023-12-14T03:19:25;63.23;;;28.80;;
2011;SDS011;1009;51.436;6.972;2023-12-14T03:21:51;57.27;;;26.50;;
2011;SDS011;1009;51.436;6.972;2023-12-14T03:24:18;51.50;;;26.43;;
2011;SDS011;1009;51.436;6.972;2023-12-14T03:26:45;74.07;;;27.73;;
2011;SDS011;1009;51.436;6.972;2023-12-14T03:29:12;71.03;;;27.03;;
2011;SDS011;1009;51.436;6.972;2023-12-14T03:31:40;65.70;;;27.97;;
2011;SDS011;1009;51.436;6.972;2023-12-14T03:34:07;77.23;;;27.67;;
2011;SDS011;1009;51.436;6.972;2023-12-14T03:36:33;86.97;;;32.67;;
2011;SDS011;1009;51.436;6.972;2023-12-14T03:39:00;69.43;;;30.60;;
2011;SDS011;1009;51.436;6.972;2023-12-14T03:41:27;70.73;;;32.73;;
2011;SDS011;1009;51.436;6.972;2023-12-14T03:43:54;64.93;;;28.60;;
2011;SDS011;1009;51.436;6.972;2023-12-14T03:46:21;55.33;;;27.40;;
2011;SDS011;1009;51.436;6.972;2023-12-14T03:48:49;52.20;;;27.30;;
2011;SDS011;1009;51.436;6.972;2023-12-14T03:51:17;44.33;;;20.93;;
2011;SDS011;1009;51.436;6.972;2023-12-14T03:53:44;43.13;;;22.63;;
2011;SDS011;1009;51.436;6.972;2023-12-14T03:56:11;43.03;;;20.47;;
2011;SDS011;1009;51.436;6.972;2023-12-14T03:58:38;37.03;;;18.00;;
2011;SDS011;1009;51.436;6.972;2023-12-14T04:01:04;31.90;;;17.57;;
2011;SDS011;1009;51.436;6.972;2023-12-14T04:03:31;35.60;;;18.77;;
2011;SDS011;1009;51.436;6.972;2023-12-14T04:05:59;37.13;;;18.30;;
2011;SDS011;1009;51.436;6.972;2023-12-14T04:08:26;33.23;;;16.43;;
2011;SDS011;1009;51.436;6.972;2023-12-14T04:10:53;34.60;;;17.40;;
2011;SDS011;1009;51.436;6.972;2023-12-14T04:13:20;34.60;;;19.57;;
2011;SDS011;1009;51.436;6.972;2023-12-14T04:15:50;38.43;;;18.30;;
2011;SDS011;1009;51.436;6.972;2023-12-14T04:18:16;30.57;;;17.13;;
2011;SDS011;1009;51.436;6.972;2023-12-14T04:20:43;30.03;;;15.83;;
2011;SDS011;1009;51.436;6.972;2023-12-14T04:23:11;31.63;;;17.10;;
2011;SDS011;1009;51.436;6.972;2023-12-14T04:25:38;36.43;;;19.07;;
2011;SDS011;1009;51.436;6.972;2023-12-14T04:28:05;36.87;;;17.90;;
2011;SDS011;1009;51.436;6.972;2023-12-14T04:30:31;36.97;;;20.20;;
2011;SDS011;1009;51.436;6.972;2023-12-14T04:32:58;41.63;;;20.97;;
2011;SDS011;1009;51.436;6.972;2023-12-14T04:35:25;37.80;;;19.97;;
2011;SDS011;1009;51.436;6.972;2023-12-14T04:37:51;32.73;;;18.30;;
2011;SDS011;1009;51.436;6.972;2023-12-14T04:40:20;34.80;;;18.80;;
2011;SDS011;1009;51.436;6.972;2023-12-14T04:42:46;32.37;;;18.47;;
2011;SDS011;1009;51.436;6.972;2023-12-14T04:45:13;34.80;;;16.30;;
2011;SDS011;1009;51.436;6.972;2023-12-14T04:47:41;42.33;;;19.83;;
2011;SDS011;1009;51.436;6.972;2023-12-14T04:50:08;42.10;;;20.20;;
2011;SDS011;1009;51.436;6.972;2023-12-14T04:52:35;43.83;;;19.50;;
2011;SDS011;1009;51.436;6.972;2023-12-14T04:55:02;43.27;;;18.50;;
2011;SDS011;1009;51.436;6.972;2023-12-14T04:57:31;44.67;;;19.83;;
2011;SDS011;1009;51.436;6.972;2023-12-14T04:59:57;36.93;;;20.00;;
2011;SDS011;1009;51.436;6.972;2023-12-14T05:02:24;37.70;;;19.83;;
2011;SDS011;1009;51.436;6.972;2023-12-14T05:04:51;38.40;;;18.30;;
2011;SDS011;1009;51.436;6.972;2023-12-14T05:07:17;39.30;;;19.77;;
2011;SDS011;1009;51.436;6.972;2023-12-14T05:09:44;38.67;;;20.40;;
2011;SDS011;1009;51.436;6.972;2023-12-14T05:12:11;40.80;;;19.87;;
2011;SDS011;1009;51.436;6.972;2023-12-14T05:14:39;40.00;;;19.93;;
2011;SDS011;1009;51.436;6.972;2023-12-14T05:17:06;38.60;;;19.10;;
2011;SDS011;1009;51.436;6.972;2023-12-14T05:19:32;37.53;;;19.13;;
2011;SDS011;1009;51.436;6.972;2023-12-14T05:21:59;30.17;;;16.20;;
2011;SDS011;1009;51.436;6.972;2023-12-14T05:24:26;32.67;;;17.97;;
2011;SDS011;1009;51.436;6.972;2023-12-14T05:26:53;29.03;;;16.63;;
2011;SDS011;1009;51.436;6.972;2023-12-14T05:29:20;33.67;;;15.93;;
2011;SDS011;1009;51.436;6.972;2023-12-14T05:31:49;35.43;;;18.87;;
2011;SDS011;1009;51.436;6.972;2023-12-14T05:34:16;29.80;;;16.07;;
2011;SDS011;1009;51.436;6.972;2023-12-14T05:36:43;30.47;;;15.50;;
2011;SDS011;1009;51.436;6.972;2023-12-14T05:39:09;36.43;;;18.07;;
2011;SDS011;1009;51.436;6.972;2023-12-14T05:41:39;32.53;;;16.57;;
2011;SDS011;1009;51.436;6.972;2023-12-14T05:44:06;32.33;;;16.40;;
2011;SDS011;1009;51.436;6.972;2023-12-14T05:46:33;32.40;;;15.90;;
2011;SDS011;1009;51.436;6.972;2023-12-14T05:49:01;38.23;;;17.87;;
2011;SDS011;1009;51.436;6.972;2023-12-14T05:51:28;35.50;;;16.60;;
2011;SDS011;1009;51.436;6.972;2023-12-14T05:53:55;36.03;;;16.87;;
2011;SDS011;1009;51.436;6.972;2023-12-14T05:56:22;39.27;;;18.30;;
2011;SDS011;1009;51.436;6.972;2023-12-14T05:58:49;39.00;;;17.67;;
2011;SDS011;1009;51.436;6.972;2023-12-14T06:01:16;40.27;;;19.07;;
2011;SDS011;1009;51.436;6.972;2023-12-14T06:03:43;39.43;;;20.33;;
2011;SDS011;1009;51.436;6.972;2023-12-14T06:06:11;41.63;;;20.37;;
2011;SDS011;1009;51.436;6.972;2023-12-14T06:08:39;35.77;;;18.97;;
2011;SDS011;1009;51.436;6.972;2023-12-14T06:11:06;34.60;;;18.67;;
2011;SDS011;1009;51.436;6.972;2023-12-14T06:13:33;37.73;;;20.23;;
2011;SDS011;1009;51.436;6.972;2023-12-14T06:16:00;38.13;;;19.13;;
2011;SDS011;1009;51.436;6.972;2023-12-14T06:18:29;38.67;;;18.83;;
2011;SDS011;1009;51.436;6.972;2023-12-14T06:20:56;43.97;;;21.27;;
2011;SDS011;1009;51.436;6.972;2023-12-14T06:23:24;41.57;;;21.50;;
2011;SDS011;1009;51.436;6.972;2023-12-14T06:25:52;49.37;;;21.83;;
2011;SDS011;1009;51.436;6.972;2023-12-14T06:28:18;43.60;;;20.87;;
2011;SDS011;1009;51.436;6.972;2023-12-14T06:30:46;36.90;;;20.00;;
2011;SDS011;1009;51.436;6.972;2023-12-14T06:33:13;39.60;;;19.67;;
2011;SDS011;1009;51.436;6.972;2023-12-14T06:35:40;40.97;;;20.53;;
2011;SDS011;1009;51.436;6.972;2023-12-14T06:38:06;38.50;;;21.17;;
2011;SDS011;1009;51.436;6.972;2023-12-14T06:40:34;44.33;;;22.67;;
2011;SDS011;1009;51.436;6.972;2023-12-14T06:43:03;40.13;;;20.87;;
2011;SDS011;1009;51.436;6.972;2023-12-14T06:45:30;42.90;;;20.87;;
2011;SDS011;1009;51.436;6.972;2023-12-14T06:47:57;40.90;;;18.50;;
2011;SDS011;1009;51.436;6.972;2023-12-14T06:50:23;45.90;;;21.80;;
2011;SDS011;1009;51.436;6.972;2023-12-14T06:52:50;53.13;;;23.30;;
2011;SDS011;1009;51.436;6.972;2023-12-14T06:55:17;44.63;;;21.00;;
2011;SDS011;1009;51.436;6.972;2023-12-14T06:57:45;53.57;;;25.33;;
2011;SDS011;1009;51.436;6.972;2023-12-14T07:00:12;54.57;;;26.60;;
2011;SDS011;1009;51.436;6.972;2023-12-14T07:02:40;53.93;;;26.10;;
2011;SDS011;1009;51.436;6.972;2023-12-14T07:05:07;54.37;;;23.03;;
2011;SDS011;1009;51.436;6.972;2023-12-14T07:07:34;56.20;;;25.53;;
2011;SDS011;1009;51.436;6.972;2023-12-14T07:10:00;56.37;;;24.50;;
2011;SDS011;1009;51.436;6.972;2023-12-14T07:12:27;51.63;;;25.53;;
2011;SDS011;1009;51.436;6.972;2023-12-14T07:14:55;54.60;;;22.57;;
2011;SDS011;1009;51.436;6.972;2023-12-14T07:17:22;51.33;;;20.73;;
2011;SDS011;1009;51.436;6.972;2023-12-14T07:19:50;50.30;;;22.30;;
2011;SDS011;1009;51.436;6.972;2023-12-14T07:22:17;45.40;;;20.77;;
2011;SDS011;1009;51.436;6.972;2023-12-14T07:24:44;40.97;;;20.83;;
2011;SDS011;1009;51.436;6.972;2023-12-14T07:27:11;44.93;;;22.07;;
2011;SDS011;1009;51.436;6.972;2023-12-14T07:29:37;50.80;;;20.87;;
2011;SDS011;1009;51.436;6.972;2023-12-14T07:32:06;39.37;;;20.20;;
2011;SDS011;1009;51.436;6.972;2023-12-14T07:34:33;44.20;;;17.77;;
2011;SDS011;1009;51.436;6.972;2023-12-14T07:37:00;37.70;;;19.27;;
2011;SDS011;1009;51.436;6.972;2023-12-14T07:39:26;39.33;;;18.57;;
2011;SDS011;1009;51.436;6.972;2023-12-14T07:41:53;35.47;;;18.13;;
2011;SDS011;1009;51.436;6.972;2023-12-14T07:44:20;36.87;;;19.47;;
2011;SDS011;1009;51.436;6.972;2023-12-14T07:46:46;37.80;;;19.33;;
2011;SDS011;1009;51.436;6.972;2023-12-14T07:49:15;40.07;;;19.17;;
2011;SDS011;1009;51.436;6.972;2023-12-14T07:51:45;38.60;;;21.20;;
2011;SDS011;1009;51.436;6.972;2023-12-14T07:54:12;39.97;;;20.63;;
2011;SDS011;1009;51.436;6.972;2023-12-14T07:56:38;42.43;;;20.87;;
2011;SDS011;1009;51.436;6.972;2023-12-14T07:59:05;39.17;;;21.33;;
2011;SDS011;1009;51.436;6.972;2023-12-14T08:01:32;37.97;;;20.57;;
2011;SDS011;1009;51.436;6.972;2023-12-14T08:04:00;42.80;;;21.30;;
2011;SDS011;1009;51.436;6.972;2023-12-14T08:06:29;46.93;;;22.53;;
2011;SDS011;1009;51.436;6.972;2023-12-14T08:08:55;34.77;;;19.50;;
2011;SDS011;1009;51.436;6.972;2023-12-14T08:11:24;35.90;;;19.13;;
2011;SDS011;1009;51.436;6.972;2023-12-14T08:13:51;44.73;;;21.33;;
2011;SDS011;1009;51.436;6.972;2023-12-14T08:16:17;38.73;;;20.67;;
2011;SDS011;1009;51.436;6.972;2023-12-14T08:18:44;42.80;;;20.43;;
2011;SDS011;1009;51.436;6.972;2023-12-14T08:21:13;41.57;;;22.13;;
2011;SDS011;1009;51.436;6.972;2023-12-14T08:23:41;46.47;;;20.33;;
2011;SDS011;1009;51.436;6.972;2023-12-14T08:26:08;54.30;;;23.33;;
2011;SDS011;1009;51.436;6.972;2023-12-14T08:28:37;50.10;;;24.00;;
2011;SDS011;1009;51.436;6.972;2023-12-14T08:31:04;48.23;;;22.80;;
2011;SDS011;1009;51.436;6.972;2023-12-14T08:33:31;54.53;;;24.93;;
2011;SDS011;1009;51.436;6.972;2023-12-14T08:35:58;45.37;;;21.57;;
2011;SDS011;1009;51.436;6.972;2023-12-14T08:38:25;46.87;;;23.70;;
2011;SDS011;1009;51.436;6.972;2023-12-14T08:40:53;55.27;;;25.63;;
2011;SDS011;1009;51.436;6.972;2023-12-14T08:43:19;52.90;;;26.30;;
2011;SDS011;1009;51.436;6.972;2023-12-14T08:45:46;49.63;;;24.70;;
2011;SDS011;1009;51.436;6.972;2023-12-14T08:48:14;45.97;;;22.07;;
2011;SDS011;1009;51.436;6.972;2023-12-14T08:50:41;37.90;;;21.07;;
2011;SDS011;1009;51.436;6.972;2023-12-14T08:53:08;39.20;;;21.67;;
2011;SDS011;1009;51.436;6.972;2023-12-14T08:55:34;35.80;;;20.53;;
2011;SDS011;1009;51.436;6.972;2023-12-14T08:58:02;40.50;;;20.90;;
2011;SDS011;1009;51.436;6.972;2023-12-14T09:00:29;41.00;;;21.70;;
2011;SDS011;1009;51.436;6.972;2023-12-14T09:02:56;39.47;;;20.23;;
2011;SDS011;1009;51.436;6.972;2023-12-14T09:05:23;42.03;;;20.90;;
2011;SDS011;1009;51.436;6.972;2023-12-14T09:07:51;41.53;;;21.10;;
2011;SDS011;1009;51.436;6.972;2023-12-14T09:10:21;38.27;;;20.17;;
2011;SDS011;1009;51.436;6.972;2023-12-14T09:12:47;42.00;;;19.97;;
2011;SDS011;1009;51.436;6.972;2023-12-14T09:15:16;45.57;;;22.07;;
2011;SDS011;1009;51.436;6.972;2023-12-14T09:17:42;38.33;;;20.70;;
2011;SDS011;1009;51.436;6.972;2023-12-14T09:20:10;43.10;;;21.80;;
2011;SDS011;1009;51.436;6.972;2023-12-14T09:22:37;44.00;;;22.30;;
2011;SDS011;1009;51.436;6.972;2023-12-14T09:25:04;37.60;;;21.77;;
2011;SDS011;1009;51.436;6.972;2023-12-14T09:27:34;48.60;;;24.97;;
2011;SDS011;1009;51.436;6.972;2023-12-14T09:30:01;44.47;;;23.80;;
2011;SDS011;1009;51.436;6.972;2023-12-14T09:32:29;45.67;;;23.80;;
2011;SDS011;1009;51.436;6.972;2023-12-14T09:34:55;43.03;;;21.73;;
2011;SDS011;1009;51.436;6.972;2023-12-14T09:37:22;46.10;;;22.10;;
2011;SDS011;1009;51.436;6.972;2023-12-14T09:39:50;48.13;;;24.60;;
2011;SDS011;1009;51.436;6.972;2023-12-14T09:42:17;45.90;;;22.70;;
2011;SDS011;1009;51.436;6.972;2023-12-14T09:44:45;41.60;;;21.80;;
2011;SDS011;1009;51.436;6.972;2023-12-14T09:47:12;50.80;;;22.57;;
2011;SDS011;1009;51.436;6.972;2023-12-14T09:49:41;49.37;;;23.07;;
2011;SDS011;1009;51.436;6.972;2023-12-14T09:52:09;43.90;;;22.20;;
2011;SDS011;1009;51.436;6.972;2023-12-14T09:54:36;42.13;;;22.07;;
2011;SDS011;1009;51.436;6.972;2023-12-14T09:57:03;40.00;;;20.30;;
2011;SDS011;1009;51.436;6.972;2023-12-14T09:59:30;39.10;;;20.90;;
2011;SDS011;1009;51.436;6.972;2023-12-14T10:02:08;42.67;;;21.07;;
2011;SDS011;1009;51.436;6.972;2023-12-14T10:04:36;38.17;;;19.90;;
2011;SDS011;1009;51.436;6.972;2023-12-14T10:07:04;43.10;;;20.80;;
2011;SDS011;1009;51.436;6.972;2023-12-14T10:09:32;38.63;;;20.43;;
2011;SDS011;1009;51.436;6.972;2023-12-14T10:12:03;43.60;;;21.70;;
2011;SDS011;1009;51.436;6.972;2023-12-14T10:14:31;41.97;;;21.33;;
2011;SDS011;1009;51.436;6.972;2023-12-14T10:16:59;37.27;;;19.97;;
2011;SDS011;1009;51.436;6.972;2023-12-14T10:19:41;33.43;;;18.97;;
2011;SDS011;1009;51.436;6.972;2023-12-14T10:22:10;36.90;;;20.87;;
2011;SDS011;1009;51.436;6.972;2023-12-14T10:24:37;39.70;;;21.10;;
2011;SDS011;1009;51.436;6.972;2023-12-14T10:27:05;36.90;;;20.70;;
2011;SDS011;1009;51.436;6.972;2023-12-14T10:29:33;31.77;;;20.20;;
2011;SDS011;1009;51.436;6.972;2023-12-14T10:32:00;34.40;;;18.90;;
2011;SDS011;1009;51.436;6.972;2023-12-14T10:34:31;33.43;;;18.00;;
2011;SDS011;1009;51.436;6.972;2023-12-14T10:36:58;34.40;;;17.67;;
2011;SDS011;1009;51.436;6.972;2023-12-14T10:39:27;31.23;;;18.90;;
2011;SDS011;1009;51.436;6.972;2023-12-14T10:41:55;30.63;;;17.40;;
2011;SDS011;1009;51.436;6.972;2023-12-14T10:44:25;32.47;;;17.60;;
2011;SDS011;1009;51.436;6.972;2023-12-14T10:46:53;31.87;;;17.20;;
2011;SDS011;1009;51.436;6.972;2023-12-14T10:49:22;33.10;;;16.70;;
2011;SDS011;1009;51.436;6.972;2023-12-14T10:51:51;30.77;;;17.97;;
2011;SDS011;1009;51.436;6.972;2023-12-14T10:54:20;28.00;;;16.70;;
2011;SDS011;1009;51.436;6.972;2023-12-14T10:56:51;26.37;;;16.00;;
2011;SDS011;1009;51.436;6.972;2023-12-14T10:59:21;24.93;;;16.53;;
2011;SDS011;1009;51.436;6.972;2023-12-14T11:01:51;25.23;;;16.33;;
2011;SDS011;1009;51.436;6.972;2023-12-14T11:04:18;25.50;;;13.70;;
2011;SDS011;1009;51.436;6.972;2023-12-14T11:06:47;25.53;;;14.00;;
2011;SDS011;1009;51.436;6.972;2023-12-14T11:09:13;21.53;;;13.37;;
2011;SDS011;1009;51.436;6.972;2023-12-14T11:11:47;20.00;;;11.83;;
2011;SDS011;1009;51.436;6.972;2023-12-14T11:14:22;21.50;;;13.03;;
2011;SDS011;1009;51.436;6.972;2023-12-14T11:16:50;21.23;;;12.40;;
2011;SDS011;1009;51.436;6.972;2023-12-14T11:19:26;19.83;;;12.60;;
2011;SDS011;1009;51.436;6.972;2023-12-14T11:22:10;20.43;;;11.97;;
2011;SDS011;1009;51.436;6.972;2023-12-14T11:24:50;19.87;;;11.37;;
2011;SDS011;1009;51.436;6.972;2023-12-14T11:27:22;17.37;;;10.93;;
2011;SDS011;1009;51.436;6.972;2023-12-14T11:29:53;18.47;;;11.30;;
2011;SDS011;1009;51.436;6.972;2023-12-14T11:32:19;19.40;;;12.43;;
2011;SDS011;1009;51.436;6.972;2023-12-14T11:34:46;17.03;;;11.13;;
2011;SDS011;1009;51.436;6.972;2023-12-14T11:37:13;18.33;;;11.07;;
2011;SDS011;1009;51.436;6.972;2023-12-14T11:39:40;15.87;;;10.37;;
2011;SDS011;1009;51.436;6.972;2023-12-14T11:42:08;18.10;;;11.23;;
2011;SDS011;1009;51.436;6.972;2023-12-14T11:44:37;15.87;;;11.47;;
2011;SDS011;1009;51.436;6.972;2023-12-14T11:47:04;18.53;;;11.10;;
2011;SDS011;1009;51.436;6.972;2023-12-14T11:49:30;14.43;;;9.67;;
2011;SDS011;1009;51.436;6.972;2023-12-14T11:51:58;15.20;;;10.33;;
2011;SDS011;1009;51.436;6.972;2023-12-14T11:54:28;18.23;;;10.57;;
2011;SDS011;1009;51.436;6.972;2023-12-14T11:56:55;18.90;;;11.37;;
2011;SDS011;1009;51.436;6.972;2023-12-14T11:59:22;15.87;;;10.30;;
2011;SDS011;1009;51.436;6.972;2023-12-14T12:01:58;17.87;;;11.33;;
2011;SDS011;1009;51.436;6.972;2023-12-14T12:04:25;21.20;;;11.27;;
2011;SDS011;1009;51.436;6.972;2023-12-14T12:06:58;15.70;;;10.90;;
2011;SDS011;1009;51.436;6.972;2023-12-14T12:09:36;18.73;;;11.17;;
2011;SDS011;1009;51.436;6.972;2023-12-14T12:12:06;15.07;;;10.27;;
2011;SDS011;1009;51.436;6.972;2023-12-14T12:14:34;18.73;;;11.23;;
2011;SDS011;1009;51.436;6.972;2023-12-14T12:17:02;18.00;;;10.73;;
2011;SDS011;1009;51.436;6.972;2023-12-14T12:19:31;18.53;;;11.40;;
2011;SDS011;1009;51.436;6.972;2023-12-14T12:21:58;20.73;;;10.97;;
2011;SDS011;1009;51.436;6.972;2023-12-14T12:24:25;16.70;;;11.57;;
2011;SDS011;1009;51.436;6.972;2023-12-14T12:26:52;17.53;;;11.23;;
2011;SDS011;1009;51.436;6.972;2023-12-14T12:29:18;16.97;;;10.23;;
2011;SDS011;1009;51.436;6.972;2023-12-14T12:31:45;17.97;;;10.37;;
2011;SDS011;1009;51.436;6.972;2023-12-14T12:34:13;17.50;;;10.47;;
2011;SDS011;1009;51.436;6.972;2023-12-14T12:36:40;16.80;;;10.00;;
2011;SDS011;1009;51.436;6.972;2023-12-14T12:39:07;16.70;;;10.00;;
2011;SDS011;1009;51.436;6.972;2023-12-14T12:41:34;14.00;;;9.53;;
2011;SDS011;1009;51.436;6.972;2023-12-14T12:44:02;17.93;;;9.20;;
2011;SDS011;1009;51.436;6.972;2023-12-14T12:46:31;16.70;;;10.50;;
2011;SDS011;1009;51.436;6.972;2023-12-14T12:48:58;17.10;;;10.93;;
2011;SDS011;1009;51.436;6.972;2023-12-14T12:51:27;16.23;;;11.17;;
2011;SDS011;1009;51.436;6.972;2023-12-14T12:53:54;17.70;;;10.33;;
2011;SDS011;1009;51.436;6.972;2023-12-14T12:56:22;15.03;;;9.07;;
2011;SDS011;1009;51.436;6.972;2023-12-14T12:58:49;16.67;;;10.20;;
2011;SDS011;1009;51.436;6.972;2023-12-14T13:01:18;12.30;;;8.17;;
2011;SDS011;1009;51.436;6.972;2023-12-14T13:03:46;15.53;;;9.00;;
2011;SDS011;1009;51.436;6.972;2023-12-14T13:06:12;14.23;;;9.63;;
2011;SDS011;1009;51.436;6.972;2023-12-14T13:08:40;13.63;;;8.63;;
2011;SDS011;1009;51.436;6.972;2023-12-14T13:11:07;15.03;;;8.77;;
2011;SDS011;1009;51.436;6.972;2023-12-14T13:13:34;15.00;;;9.10;;
2011;SDS011;1009;51.436;6.972;2023-12-14T13:16:01;13.97;;;8.30;;
2011;SDS011;1009;51.436;6.972;2023-12-14T13:18:28;14.07;;;8.00;;
2011;SDS011;1009;51.436;6.972;2023-12-14T13:20:54;13.70;;;9.00;;
2011;SDS011;1009;51.436;6.972;2023-12-14T13:23:22;13.47;;;8.77;;
2011;SDS011;1009;51.436;6.972;2023-12-14T13:25:50;12.23;;;8.33;;
2011;SDS011;1009;51.436;6.972;2023-12-14T13:28:17;15.60;;;9.80;;
2011;SDS011;1009;51.436;6.972;2023-12-14T13:30:44;12.70;;;7.57;;
2011;SDS011;1009;51.436;6.972;2023-12-14T13:33:11;13.63;;;8.57;;
2011;SDS011;1009;51.436;6.972;2023-12-14T13:35:37;12.50;;;7.93;;
2011;SDS011;1009;51.436;6.972;2023-12-14T13:38:04;14.13;;;9.77;;
2011;SDS011;1009;51.436;6.972;2023-12-14T13:40:31;12.63;;;8.90;;
2011;SDS011;1009;51.436;6.972;2023-12-14T13:42:59;11.00;;;7.93;;
2011;SDS011;1009;51.436;6.972;2023-12-14T13:45:28;16.70;;;9.30;;
2011;SDS011;1009;51.436;6.972;2023-12-14T13:47:55;12.60;;;9.13;;
2011;SDS011;1009;51.436;6.972;2023-12-14T13:50:23;16.93;;;10.43;;
2011;SDS011;1009;51.436;6.972;2023-12-14T13:52:51;15.87;;;9.10;;
2011;SDS011;1009;51.436;6.972;2023-12-14T13:55:18;14.10;;;9.57;;
2011;SDS011;1009;51.436;6.972;2023-12-14T13:57:45;16.40;;;10.40;;
2011;SDS011;1009;51.436;6.972;2023-12-14T14:00:14;14.37;;;9.30;;
2011;SDS011;1009;51.436;6.972;2023-12-14T14:02:43;14.73;;;9.00;;
2011;SDS011;1009;51.436;6.972;2023-12-14T14:05:10;16.63;;;9.93;;
2011;SDS011;1009;51.436;6.972;2023-12-14T14:07:37;16.20;;;10.60;;
2011;SDS011;1009;51.436;6.972;2023-12-14T14:10:04;12.77;;;8.53;;
2011;SDS011;1009;51.436;6.972;2023-12-14T14:12:32;15.10;;;9.73;;
2011;SDS011;1009;51.436;6.972;2023-12-14T14:14:58;15.00;;;9.70;;
2011;SDS011;1009;51.436;6.972;2023-12-14T14:17:26;14.63;;;9.70;;
2011;SDS011;1009;51.436;6.972;2023-12-14T14:19:53;14.90;;;9.90;;
2011;SDS011;1009;51.436;6.972;2023-12-14T14:22:20;14.20;;;9.20;;
2011;SDS011;1009;51.436;6.972;2023-12-14T14:24:47;14.67;;;10.33;;
2011;SDS011;1009;51.436;6.972;2023-12-14T14:27:13;15.50;;;10.57;;
2011;SDS011;1009;51.436;6.972;2023-12-14T14:29:40;21.23;;;11.97;;
2011;SDS011;1009;51.436;6.972;2023-12-14T14:32:07;14.80;;;10.10;;
2011;SDS011;1009;51.436;6.972;2023-12-14T14:34:35;17.60;;;10.50;;
2011;SDS011;1009;51.436;6.972;2023-12-14T14:37:02;18.33;;;10.30;;
2011;SDS011;1009;51.436;6.972;2023-12-14T14:39:28;15.30;;;9.40;;
2011;SDS011;1009;51.436;6.972;2023-12-14T14:41:55;13.83;;;9.10;;
2011;SDS011;1009;51.436;6.972;2023-12-14T14:44:22;15.53;;;9.60;;
2011;SDS011;1009;51.436;6.972;2023-12-14T14:46:49;18.30;;;9.10;;
2011;SDS011;1009;51.436;6.972;2023-12-14T14:49:16;17.03;;;9.80;;
2011;SDS011;1009;51.436;6.972;2023-12-14T14:51:44;16.20;;;9.67;;